createdAt,value
2023-02-12T00:00:39.612Z,9.759894
2023-02-12T00:01:39.582Z,9.759894
2023-02-12T01:11:42.707Z,9.762816
2023-02-12T01:12:42.693Z,9.762677
2023-02-12T01:13:42.705Z,9.762912
2023-02-12T01:14:42.696Z,9.762912
2023-02-12T01:15:42.730Z,9.762912
2023-02-12T01:16:42.630Z,9.762912
2023-02-12T01:17:43.512Z,9.762786
2023-02-12T01:18:42.632Z,9.762827
2023-02-12T01:19:42.629Z,9.762827
2023-02-12T01:20:42.792Z,9.762827
2023-02-12T01:21:42.834Z,9.762827
2023-02-12T01:22:42.753Z,9.762827
2023-02-12T01:23:42.751Z,9.762827
2023-02-12T01:24:42.728Z,9.762827
2023-02-12T01:25:42.605Z,9.762827
2023-02-12T01:26:42.661Z,9.762827
2023-02-12T01:27:42.648Z,9.762827
2023-02-12T01:28:43.541Z,9.762827
2023-02-12T01:29:42.505Z,9.762827
2023-02-12T01:30:42.561Z,9.762827
2023-02-12T01:31:42.781Z,9.762827
2023-02-12T01:32:42.491Z,9.762827
2023-02-12T01:33:42.471Z,9.762827
2023-02-12T01:34:42.497Z,9.761876
2023-02-12T01:35:42.460Z,9.761876
2023-02-12T01:36:42.506Z,9.761876
2023-02-12T01:37:42.461Z,9.761876
2023-02-12T01:38:42.481Z,9.761876
2023-02-12T01:39:42.442Z,9.761876
2023-02-12T01:40:42.414Z,9.761876
2023-02-12T01:41:42.428Z,9.761876
2023-02-12T01:42:42.405Z,9.761876
2023-02-12T01:43:42.434Z,9.761876
2023-02-12T01:44:42.395Z,9.761876
2023-02-12T01:45:42.340Z,9.761876
2023-02-12T01:46:42.391Z,9.761876
2023-02-12T01:47:42.439Z,9.761876
2023-02-12T01:48:42.303Z,9.761876
2023-02-12T01:49:42.312Z,9.763327
2023-02-12T01:50:42.284Z,9.762384
2023-02-12T01:51:42.287Z,9.762384
2023-02-12T01:52:42.420Z,9.762384
2023-02-12T01:53:42.259Z,9.762384
2023-02-12T01:54:42.246Z,9.762384
2023-02-12T01:55:42.228Z,9.762384
2023-02-12T01:56:42.234Z,9.762384
2023-02-12T01:57:42.239Z,9.762384
2023-02-12T01:58:42.202Z,9.762384
2023-02-12T01:59:42.185Z,9.762384
2023-02-12T02:00:42.161Z,9.762384
2023-02-12T02:01:42.264Z,9.762384
2023-02-12T02:02:42.157Z,9.762384
2023-02-12T02:03:42.134Z,9.762384
2023-02-12T02:04:42.153Z,9.762384
2023-02-12T02:05:42.122Z,9.762384
2023-02-12T02:06:42.116Z,9.762384
2023-02-12T02:07:42.109Z,9.762384
2023-02-12T02:08:42.102Z,9.762384
2023-02-12T02:09:42.096Z,9.762754
2023-02-12T02:10:42.081Z,9.763638
2023-02-12T02:11:42.077Z,9.762632
2023-02-12T02:12:42.054Z,9.760235
2023-02-12T02:13:42.048Z,9.760235
2023-02-12T02:14:42.053Z,9.760235
2023-02-12T02:15:42.066Z,9.760235
2023-02-12T02:16:42.017Z,9.760235
2023-02-12T02:17:42.022Z,9.760235
2023-02-12T02:18:42.006Z,9.760235
2023-02-12T02:19:42.005Z,9.760235
2023-02-12T02:20:41.987Z,9.760235
2023-02-12T02:21:41.966Z,9.760235
2023-02-12T02:22:41.955Z,9.760235
2023-02-12T02:23:41.946Z,9.760235
2023-02-12T02:24:41.953Z,9.760235
2023-02-12T02:25:41.923Z,9.760235
2023-02-12T02:26:41.927Z,9.760235
2023-02-12T02:27:41.911Z,9.760235
2023-02-12T02:28:41.906Z,9.760235
2023-02-12T02:29:41.902Z,9.760235
2023-02-12T02:30:41.961Z,9.760235
2023-02-12T02:31:41.943Z,9.760235
2023-02-12T02:32:41.861Z,9.760235
2023-02-12T02:33:41.845Z,9.760235
2023-02-12T02:34:41.851Z,9.760235
2023-02-12T02:35:41.837Z,9.760235
2023-02-12T02:36:58.045Z,9.760235
2023-02-12T02:37:43.862Z,9.760235
2023-02-12T02:38:41.795Z,9.760235
2023-02-12T02:39:41.801Z,9.760235
2023-02-12T02:40:41.798Z,9.760235
2023-02-12T02:41:41.765Z,9.760235
2023-02-12T02:42:41.768Z,9.760235
2023-02-12T02:43:41.744Z,9.762566
2023-02-12T02:44:41.740Z,9.761899
2023-02-12T02:45:41.739Z,9.762634
2023-02-12T02:46:41.740Z,9.762002
2023-02-12T02:47:41.806Z,9.762033
2023-02-12T02:48:41.694Z,9.762378
2023-02-12T02:49:41.688Z,9.762415
2023-02-12T02:50:41.692Z,9.762639
2023-02-12T02:51:41.667Z,9.762389
2023-02-12T02:52:41.647Z,9.762599
2023-02-12T02:53:41.654Z,9.762746
2023-02-12T02:54:41.630Z,9.762981
2023-02-12T02:55:41.639Z,9.762883
2023-02-12T02:56:41.612Z,9.762921
2023-02-12T02:57:41.606Z,9.763135
2023-02-12T02:58:41.591Z,9.762211
2023-02-12T02:59:41.580Z,9.762908
2023-02-12T03:00:41.636Z,9.762712
2023-02-12T03:01:41.564Z,9.762978
2023-02-12T03:02:41.600Z,9.762658
2023-02-12T03:03:42.556Z,9.762748
2023-02-12T03:04:41.534Z,9.762814
2023-02-12T03:05:41.539Z,9.762840
2023-02-12T03:06:41.522Z,9.762574
2023-02-12T03:07:41.526Z,9.762557
2023-02-12T03:08:41.492Z,9.762536
2023-02-12T03:09:41.489Z,9.762823
2023-02-12T03:10:41.489Z,9.762705
2023-02-12T03:11:41.477Z,9.762606
2023-02-12T03:12:41.461Z,9.763167
2023-02-12T03:13:41.445Z,9.762811
2023-02-12T03:14:41.449Z,9.762792
2023-02-12T03:15:41.450Z,9.762972
2023-02-12T03:16:41.485Z,9.762351
2023-02-12T03:17:41.431Z,9.762536
2023-02-12T03:18:41.399Z,9.762943
2023-02-12T03:19:41.394Z,9.763508
2023-02-12T03:20:41.385Z,9.762815
2023-02-12T03:21:41.370Z,9.762732
2023-02-12T03:22:42.369Z,9.763068
2023-02-12T03:23:41.361Z,9.762607
2023-02-12T03:24:41.342Z,9.762864
2023-02-12T03:25:41.351Z,9.762941
2023-02-12T03:26:41.345Z,9.762907
2023-02-12T03:27:41.299Z,9.762879
2023-02-12T03:28:42.302Z,9.762749
2023-02-12T03:29:41.289Z,9.762758
2023-02-12T03:30:41.321Z,9.762774
2023-02-12T03:31:41.319Z,9.762810
2023-02-12T03:32:41.292Z,9.762761
2023-02-12T03:33:41.262Z,9.762821
2023-02-12T03:34:41.240Z,9.762695
2023-02-12T03:35:41.242Z,9.762650
2023-02-12T03:36:41.225Z,9.762815
2023-02-12T03:37:41.213Z,9.762832
2023-02-12T03:38:41.220Z,9.762831
2023-02-12T03:39:41.200Z,9.762449
2023-02-12T03:40:41.190Z,9.762478
2023-02-12T03:41:41.181Z,9.762677
2023-02-12T03:42:41.164Z,9.762663
2023-02-12T03:43:41.161Z,9.762677
2023-02-12T03:44:41.147Z,9.762832
2023-02-12T03:45:41.206Z,9.762694
2023-02-12T03:46:41.125Z,9.762908
2023-02-12T03:47:41.260Z,9.762878
2023-02-12T03:48:41.125Z,9.762785
2023-02-12T03:49:41.094Z,9.762773
2023-02-12T03:50:41.097Z,9.762710
2023-02-12T03:51:41.081Z,9.762698
2023-02-12T03:52:41.062Z,9.762787
2023-02-12T03:53:41.061Z,9.762749
2023-02-12T03:54:41.051Z,9.762712
2023-02-12T03:55:41.047Z,9.762659
2023-02-12T03:56:41.020Z,9.762586
2023-02-12T03:57:41.018Z,9.762559
2023-02-12T03:58:41.006Z,9.762590
2023-02-12T03:59:40.999Z,9.762836
2023-02-12T04:00:40.999Z,9.762826
2023-02-12T04:01:41.114Z,9.762778
2023-02-12T04:02:40.965Z,9.762726
2023-02-12T04:03:40.953Z,9.762773
2023-02-12T04:04:40.995Z,9.762724
2023-02-12T04:05:40.941Z,9.762906
2023-02-12T04:06:40.934Z,9.762800
2023-02-12T04:07:40.913Z,9.762788
2023-02-12T04:08:40.931Z,9.762938
2023-02-12T04:09:40.892Z,9.762789
2023-02-12T04:10:40.887Z,9.763012
2023-02-12T04:11:40.876Z,9.762715
2023-02-12T04:12:40.866Z,9.762642
2023-02-12T04:13:40.851Z,9.762632
2023-02-12T04:14:40.845Z,9.762248
2023-02-12T04:15:40.844Z,9.762403
2023-02-12T04:16:40.893Z,9.762616
2023-02-12T04:17:40.810Z,9.762843
2023-02-12T04:18:40.811Z,9.762718
2023-02-12T04:19:40.811Z,9.762540
2023-02-12T04:20:40.785Z,9.762528
2023-02-12T04:21:40.789Z,9.762788
2023-02-12T04:22:40.766Z,9.762532
2023-02-12T04:23:40.762Z,9.762838
2023-02-12T04:24:40.754Z,9.762769
2023-02-12T04:25:40.746Z,9.762887
2023-02-12T04:26:40.740Z,9.762740
2023-02-12T04:27:40.726Z,9.762829
2023-02-12T04:28:40.766Z,9.762698
2023-02-12T04:29:40.698Z,9.762794
2023-02-12T04:30:40.748Z,9.762750
2023-02-12T04:31:40.799Z,9.762690
2023-02-12T04:32:40.676Z,9.762748
2023-02-12T04:33:40.653Z,9.762772
2023-02-12T04:34:40.656Z,9.762815
2023-02-12T04:35:40.646Z,9.762690
2023-02-12T04:36:40.637Z,9.762678
2023-02-12T04:37:40.625Z,9.762681
2023-02-12T04:38:40.617Z,9.762625
2023-02-12T04:39:40.602Z,9.762745
2023-02-12T04:40:40.599Z,9.762865
2023-02-12T04:41:40.610Z,9.762785
2023-02-12T04:42:40.578Z,9.762733
2023-02-12T04:43:40.564Z,9.762772
2023-02-12T04:44:40.560Z,9.762997
2023-02-12T04:45:40.616Z,9.762679
2023-02-12T04:46:40.555Z,9.762796
2023-02-12T04:47:40.539Z,9.762704
2023-02-12T04:48:40.519Z,9.762733
2023-02-12T04:49:40.515Z,9.762473
2023-02-12T04:50:40.494Z,9.762702
2023-02-12T04:51:40.516Z,9.762812
2023-02-12T04:52:40.538Z,9.762768
2023-02-12T04:53:40.478Z,9.762796
2023-02-12T04:54:40.465Z,9.762711
2023-02-12T04:55:40.455Z,9.762744
2023-02-12T04:56:40.450Z,9.762744
2023-02-12T04:57:40.450Z,9.762716
2023-02-12T04:58:40.430Z,9.762838
2023-02-12T04:59:40.421Z,9.762845
2023-02-12T05:00:40.413Z,9.762838
2023-02-12T05:01:40.510Z,9.762467
2023-02-12T05:02:40.471Z,9.762626
2023-02-12T05:03:40.378Z,9.762798
2023-02-12T05:04:40.473Z,9.762797
2023-02-12T05:05:40.378Z,9.762702
2023-02-12T05:06:40.350Z,9.762838
2023-02-12T05:07:40.351Z,9.763035
2023-02-12T05:08:40.333Z,9.762736
2023-02-12T05:09:40.331Z,9.762832
2023-02-12T05:10:40.314Z,9.762852
2023-02-12T05:11:40.308Z,9.762663
2023-02-12T05:12:40.297Z,9.762527
2023-02-12T05:13:40.281Z,9.762844
2023-02-12T05:14:40.302Z,9.762884
2023-02-12T05:15:40.307Z,9.762914
2023-02-12T05:16:40.256Z,9.762659
2023-02-12T05:17:40.258Z,9.762770
2023-02-12T05:18:40.234Z,9.762261
2023-02-12T05:19:40.217Z,9.762204
2023-02-12T05:20:40.220Z,9.761896
2023-02-12T05:21:40.200Z,9.762392
2023-02-12T05:22:40.194Z,9.762526
2023-02-12T05:23:40.181Z,9.762398
2023-02-12T05:24:40.166Z,9.762691
2023-02-12T05:25:40.163Z,9.762877
2023-02-12T05:26:40.157Z,9.763285
2023-02-12T05:27:40.159Z,9.763143
2023-02-12T05:28:40.128Z,9.763310
2023-02-12T05:29:40.127Z,9.762871
2023-02-12T05:30:40.192Z,9.762667
2023-02-12T05:31:40.198Z,9.762687
2023-02-12T05:32:40.100Z,9.762895
2023-02-12T05:33:40.088Z,9.762586
2023-02-12T05:34:40.070Z,9.762836
2023-02-12T05:35:40.066Z,9.762912
2023-02-12T05:36:40.059Z,9.762507
2023-02-12T05:37:40.060Z,9.762624
2023-02-12T05:38:40.057Z,9.762674
2023-02-12T05:39:40.013Z,9.762297
2023-02-12T05:40:41.031Z,9.762673
2023-02-12T05:41:40.010Z,9.762971
2023-02-12T05:42:40.025Z,9.762366
2023-02-12T05:43:39.984Z,9.763037
2023-02-12T05:44:39.977Z,9.763077
2023-02-12T05:45:39.971Z,9.762733
2023-02-12T05:46:40.076Z,9.762831
2023-02-12T05:47:39.955Z,9.762851
2023-02-12T05:48:40.347Z,9.762941
2023-02-12T05:49:40.068Z,9.762584
2023-02-12T05:50:39.930Z,9.762498
2023-02-12T05:51:39.932Z,9.762498
2023-02-12T05:52:39.945Z,9.762498
2023-02-12T05:53:39.909Z,9.762498
2023-02-12T05:54:39.897Z,9.762498
2023-02-12T05:55:39.888Z,9.762498
2023-02-12T05:56:39.904Z,9.762498
2023-02-12T05:57:39.896Z,9.762498
2023-02-12T05:58:39.870Z,9.762498
2023-02-12T05:59:39.857Z,9.762498
2023-02-12T06:00:39.851Z,9.762498
2023-02-12T06:01:39.843Z,9.762498
2023-02-12T06:02:39.864Z,9.762498
2023-02-12T06:03:39.854Z,9.762498
2023-02-12T06:04:39.806Z,9.762498
2023-02-12T06:05:39.832Z,9.762498
2023-02-12T06:06:39.758Z,9.762498
2023-02-12T06:07:39.777Z,9.762498
2023-02-12T06:08:39.750Z,9.762498
2023-02-12T06:09:39.776Z,9.762498
2023-02-12T06:10:39.735Z,9.762498
2023-02-12T06:11:39.720Z,9.762498
2023-02-12T06:12:39.735Z,9.762862
2023-02-12T06:13:39.789Z,9.762860
2023-02-12T06:14:39.682Z,9.762847
2023-02-12T06:15:39.683Z,9.762477
2023-02-12T06:16:39.743Z,9.762680
2023-02-12T06:17:39.663Z,9.763105
2023-02-12T06:18:39.664Z,9.762712
2023-02-12T06:19:39.651Z,9.762872
2023-02-12T06:20:39.632Z,9.762885
2023-02-12T06:21:39.618Z,9.762898
2023-02-12T06:22:39.616Z,9.762818
2023-02-12T06:23:39.621Z,9.762719
2023-02-12T06:24:39.597Z,9.762622
2023-02-12T06:25:39.582Z,9.762814
2023-02-12T06:26:39.585Z,9.762722
2023-02-12T06:27:39.563Z,9.762746
2023-02-12T06:28:39.647Z,9.762921
2023-02-12T06:29:39.546Z,9.762821
2023-02-12T06:30:39.545Z,9.762849
2023-02-12T06:31:39.661Z,9.762893
2023-02-12T06:32:39.539Z,9.762961
2023-02-12T06:33:39.522Z,9.762930
2023-02-12T06:34:39.509Z,9.762898
2023-02-12T06:35:39.493Z,9.762954
2023-02-12T06:36:39.483Z,9.762889
2023-02-12T06:37:39.473Z,9.762840
2023-02-12T06:38:39.486Z,9.762849
2023-02-12T06:39:39.452Z,9.762797
2023-02-12T06:40:39.441Z,9.762804
2023-02-12T06:41:39.429Z,9.762892
2023-02-12T06:42:39.428Z,9.762848
2023-02-12T06:43:39.445Z,9.762770
2023-02-12T06:44:39.410Z,9.762780
2023-02-12T06:45:39.406Z,9.762884
2023-02-12T06:46:39.523Z,9.762859
2023-02-12T06:47:39.384Z,9.762840
2023-02-12T06:48:39.388Z,9.762838
2023-02-12T06:49:39.356Z,9.762774
2023-02-12T06:50:39.358Z,9.762768
2023-02-12T06:51:39.351Z,9.762774
2023-02-12T06:52:39.335Z,9.762828
2023-02-12T06:53:39.330Z,9.762787
2023-02-12T06:54:39.317Z,9.762895
2023-02-12T06:55:39.302Z,9.762517
2023-02-12T06:56:39.292Z,9.762653
2023-02-12T06:57:39.291Z,9.762512
2023-02-12T06:58:39.284Z,9.762585
2023-02-12T06:59:39.260Z,9.762700
2023-02-12T07:00:39.277Z,9.762680
2023-02-12T07:01:39.243Z,9.762718
2023-02-12T07:02:39.332Z,9.762834
2023-02-12T07:03:39.270Z,9.762880
2023-02-12T07:04:40.210Z,9.762778
2023-02-12T07:05:39.204Z,9.762947
2023-02-12T07:06:39.193Z,9.762848
2023-02-12T07:07:39.185Z,9.762677
2023-02-12T07:08:39.180Z,9.762665
2023-02-12T07:09:39.157Z,9.762732
2023-02-12T07:10:39.147Z,9.762815
2023-02-12T07:11:39.140Z,9.762727
2023-02-12T07:12:39.135Z,9.762756
2023-02-12T07:13:39.146Z,9.763012
2023-02-12T07:14:39.096Z,9.763064
2023-02-12T07:15:40.123Z,9.763021
2023-02-12T07:16:39.118Z,9.762813
2023-02-12T07:17:39.079Z,9.762729
2023-02-12T07:18:39.085Z,9.763108
2023-02-12T07:19:39.079Z,9.762899
2023-02-12T07:20:39.074Z,9.762717
2023-02-12T07:21:39.052Z,9.762687
2023-02-12T07:22:39.041Z,9.762909
2023-02-12T07:23:39.026Z,9.762714
2023-02-12T07:24:39.043Z,9.762953
2023-02-12T07:25:39.016Z,9.762694
2023-02-12T07:26:39.005Z,9.762616
2023-02-12T07:27:38.998Z,9.762589
2023-02-12T07:28:39.164Z,9.762693
2023-02-12T07:29:39.006Z,9.762713
2023-02-12T07:30:41.646Z,9.762865
2023-02-12T07:31:38.983Z,9.762848
2023-02-12T07:32:38.948Z,9.762731
2023-02-12T07:33:38.931Z,9.762832
2023-02-12T07:34:38.935Z,9.762636
2023-02-12T07:35:38.921Z,9.762902
2023-02-12T07:36:38.918Z,9.762867
2023-02-12T07:37:38.897Z,9.762947
2023-02-12T07:38:38.898Z,9.762809
2023-02-12T07:39:38.892Z,9.762679
2023-02-12T07:40:38.871Z,9.762698
2023-02-12T07:41:38.856Z,9.762584
2023-02-12T07:42:38.850Z,9.762629
2023-02-12T07:43:38.878Z,9.762632
2023-02-12T07:44:38.848Z,9.762635
2023-02-12T07:45:38.891Z,9.762553
2023-02-12T07:46:38.817Z,9.762588
2023-02-12T07:47:38.797Z,9.762499
2023-02-12T07:48:38.787Z,9.762679
2023-02-12T07:49:38.795Z,9.762143
2023-02-12T07:50:38.760Z,9.762411
2023-02-12T07:51:38.758Z,9.762588
2023-02-12T07:52:38.743Z,9.762601
2023-02-12T07:53:38.751Z,9.762964
2023-02-12T07:54:38.751Z,9.762805
2023-02-12T07:55:38.727Z,9.762566
2023-02-12T07:56:38.732Z,9.762663
2023-02-12T07:57:38.725Z,9.762698
2023-02-12T07:58:38.689Z,9.762813
2023-02-12T07:59:38.694Z,9.762663
2023-02-12T08:00:38.681Z,9.762637
2023-02-12T08:01:38.709Z,9.762652
2023-02-12T08:02:38.736Z,9.762889
2023-02-12T08:03:38.680Z,9.762726
2023-02-12T08:04:38.711Z,9.762498
2023-02-12T08:05:38.641Z,9.762665
2023-02-12T08:06:38.636Z,9.762592
2023-02-12T08:07:38.601Z,9.762661
2023-02-12T08:08:38.641Z,9.762925
2023-02-12T08:09:38.599Z,9.762790
2023-02-12T08:10:38.593Z,9.763021
2023-02-12T08:11:38.565Z,9.762635
2023-02-12T08:12:38.553Z,9.762583
2023-02-12T08:13:38.552Z,9.762556
2023-02-12T08:14:38.554Z,9.763263
2023-02-12T08:15:38.521Z,9.763226
2023-02-12T08:16:38.587Z,9.763226
2023-02-12T08:17:38.498Z,9.763226
2023-02-12T08:18:38.524Z,9.763226
2023-02-12T08:19:38.510Z,9.763226
2023-02-12T08:20:38.483Z,9.763226
2023-02-12T08:21:38.483Z,9.763226
2023-02-12T08:22:38.502Z,9.763226
2023-02-12T08:23:38.453Z,9.763226
2023-02-12T08:24:38.431Z,9.763226
2023-02-12T08:25:39.433Z,9.763226
2023-02-12T08:26:38.422Z,9.763226
2023-02-12T08:27:38.416Z,9.763226
2023-02-12T08:28:38.537Z,9.763226
2023-02-12T08:29:38.397Z,9.763226
2023-02-12T08:30:38.476Z,9.763226
2023-02-12T08:31:38.427Z,9.763226
2023-02-12T08:32:38.367Z,9.763226
2023-02-12T08:33:39.007Z,9.763226
2023-02-12T08:34:38.351Z,9.763226
2023-02-12T08:35:38.335Z,9.763226
2023-02-12T08:36:38.317Z,9.763226
2023-02-12T08:37:38.320Z,9.763226
2023-02-12T08:38:38.323Z,9.763226
2023-02-12T08:39:38.311Z,9.763226
2023-02-12T08:40:38.302Z,9.763226
2023-02-12T08:41:38.285Z,9.763226
2023-02-12T08:42:38.263Z,9.763226
2023-02-12T08:43:39.964Z,9.763226
2023-02-12T08:44:38.259Z,9.763226
2023-02-12T08:45:38.238Z,9.763226
2023-02-12T08:46:38.235Z,9.763226
2023-02-12T08:47:38.221Z,9.763226
2023-02-12T08:48:38.266Z,9.763226
2023-02-12T08:49:38.213Z,9.763226
2023-02-12T08:50:38.190Z,9.763226
2023-02-12T08:51:38.177Z,9.763226
2023-02-12T08:52:38.156Z,9.763226
2023-02-12T08:53:38.153Z,9.763226
2023-02-12T08:54:38.157Z,9.763226
2023-02-12T08:55:38.134Z,9.763226
2023-02-12T08:56:38.103Z,9.763226
2023-02-12T08:57:39.123Z,9.763226
2023-02-12T08:58:38.135Z,9.763226
2023-02-12T08:59:38.103Z,9.763226
2023-02-12T09:00:40.425Z,9.763226
2023-02-12T09:01:39.262Z,9.763226
2023-02-12T09:02:38.143Z,9.763226
2023-02-12T09:03:38.053Z,9.763226
2023-02-12T09:04:38.078Z,9.763226
2023-02-12T09:05:38.066Z,9.763226
2023-02-12T09:06:38.062Z,9.763226
2023-02-12T09:07:38.101Z,9.763226
2023-02-12T09:08:38.040Z,9.763226
2023-02-12T09:09:38.052Z,9.763226
2023-02-12T09:10:38.001Z,9.763226
2023-02-12T09:11:38.000Z,9.763226
2023-02-12T09:12:37.991Z,9.763226
2023-02-12T09:13:37.975Z,9.763226
2023-02-12T09:14:37.987Z,9.763226
2023-02-12T09:15:37.964Z,9.763226
2023-02-12T09:16:38.022Z,9.763226
2023-02-12T09:17:37.962Z,9.763226
2023-02-12T09:18:37.916Z,9.763226
2023-02-12T09:19:37.910Z,9.763226
2023-02-12T09:20:37.926Z,9.763226
2023-02-12T09:21:37.907Z,9.763226
2023-02-12T09:22:37.897Z,9.763226
2023-02-12T09:23:37.905Z,9.763226
2023-02-12T09:24:37.883Z,9.763226
2023-02-12T09:25:37.886Z,9.763226
2023-02-12T09:26:37.857Z,9.763226
2023-02-12T09:27:37.843Z,9.763226
2023-02-12T09:28:37.882Z,9.763226
2023-02-12T09:29:37.839Z,9.763226
2023-02-12T09:30:37.872Z,9.763226
2023-02-12T09:31:37.962Z,9.763226
2023-02-12T09:32:37.816Z,9.763226
2023-02-12T09:33:37.814Z,9.763226
2023-02-12T09:34:37.823Z,9.763226
2023-02-12T09:35:37.792Z,9.763226
2023-02-12T09:36:37.759Z,9.763226
2023-02-12T09:37:37.764Z,9.763226
2023-02-12T09:38:37.753Z,9.763226
2023-02-12T09:39:37.731Z,9.763226
2023-02-12T09:40:37.735Z,9.763226
2023-02-12T09:41:37.743Z,9.763226
2023-02-12T09:42:37.714Z,9.763226
2023-02-12T09:43:37.705Z,9.763226
2023-02-12T09:44:37.818Z,9.763226
2023-02-12T09:45:38.709Z,9.763226
2023-02-12T09:46:37.784Z,9.763226
2023-02-12T09:47:37.702Z,9.763226
2023-02-12T09:48:37.685Z,9.763226
2023-02-12T09:49:37.657Z,9.763226
2023-02-12T09:50:37.678Z,9.763226
2023-02-12T09:51:37.659Z,9.763226
2023-02-12T09:52:37.629Z,9.763226
2023-02-12T09:53:37.645Z,9.763226
2023-02-12T09:54:37.608Z,9.763226
2023-02-12T09:55:37.601Z,9.763226
2023-02-12T09:56:38.590Z,9.763226
2023-02-12T09:57:37.591Z,9.763226
2023-02-12T09:58:37.618Z,9.763226
2023-02-12T09:59:37.561Z,9.763226
2023-02-12T10:00:37.573Z,9.763226
2023-02-12T10:01:37.626Z,9.763226
2023-02-12T10:02:37.528Z,9.763226
2023-02-12T10:03:37.530Z,9.763226
2023-02-12T10:04:37.593Z,9.763226
2023-02-12T10:05:37.534Z,9.763226
2023-02-12T10:06:37.536Z,9.763226
2023-02-12T10:07:37.522Z,9.763226
2023-02-12T10:08:37.487Z,9.763226
2023-02-12T10:09:37.487Z,9.763226
2023-02-12T10:10:37.458Z,9.763226
2023-02-12T10:11:37.433Z,9.763226
2023-02-12T10:12:37.453Z,9.763226
2023-02-12T10:13:37.452Z,9.763226
2023-02-12T10:14:37.430Z,9.763226
2023-02-12T10:15:37.448Z,9.763226
2023-02-12T10:16:38.546Z,9.763226
2023-02-12T10:17:38.370Z,9.763226
2023-02-12T10:18:37.357Z,9.763226
2023-02-12T10:19:37.356Z,9.763226
2023-02-12T10:20:40.271Z,9.763226
2023-02-12T10:21:37.340Z,9.763226
2023-02-12T10:22:48.086Z,9.763226
2023-02-12T10:23:38.378Z,9.763226
2023-02-12T10:24:37.324Z,9.763226
2023-02-12T10:25:37.323Z,9.763226
2023-02-12T10:26:37.301Z,9.763226
2023-02-12T10:27:37.302Z,9.763226
2023-02-12T10:28:37.326Z,9.763226
2023-02-12T10:29:37.284Z,9.763226
2023-02-12T10:30:37.297Z,9.763226
2023-02-12T10:31:37.479Z,9.763226
2023-02-12T10:32:37.272Z,9.763226
2023-02-12T10:33:38.798Z,9.763226
2023-02-12T10:34:37.202Z,9.763226
2023-02-12T10:35:37.260Z,9.763226
2023-02-12T10:36:37.203Z,9.763226
2023-02-12T10:37:37.370Z,9.763226
2023-02-12T10:38:37.202Z,9.763226
2023-02-12T10:39:37.182Z,9.763226
2023-02-12T10:40:37.182Z,9.763226
2023-02-12T10:41:37.170Z,9.763226
2023-02-12T10:42:37.146Z,9.763226
2023-02-12T10:43:37.143Z,9.763226
2023-02-12T10:44:37.127Z,9.763226
2023-02-12T10:45:37.176Z,9.763226
2023-02-12T10:46:37.170Z,9.763226
2023-02-12T10:47:37.191Z,9.763226
2023-02-12T10:48:37.081Z,9.763226
2023-02-12T10:49:37.073Z,9.763226
2023-02-12T10:50:37.065Z,9.763226
2023-02-12T10:51:37.054Z,9.763226
2023-02-12T10:52:37.030Z,9.763226
2023-02-12T10:53:37.008Z,9.763226
2023-02-12T10:54:37.000Z,9.763226
2023-02-12T10:55:37.040Z,9.763226
2023-02-12T10:56:37.000Z,9.763226
2023-02-12T10:57:36.985Z,9.763226
2023-02-12T10:58:36.990Z,9.763226
2023-02-12T10:59:36.969Z,9.763226
2023-02-12T11:00:36.961Z,9.763226
2023-02-12T11:01:37.223Z,9.763226
2023-02-12T11:02:36.936Z,9.763226
2023-02-12T11:03:36.926Z,9.763226
2023-02-12T11:04:36.972Z,9.763226
2023-02-12T11:05:36.921Z,9.763226
2023-02-12T11:06:36.880Z,9.763226
2023-02-12T11:07:36.929Z,9.763226
2023-02-12T11:08:36.880Z,9.763226
2023-02-12T11:09:36.929Z,9.763226
2023-02-12T11:10:36.889Z,9.763226
2023-02-12T11:11:36.886Z,9.763226
2023-02-12T11:12:36.843Z,9.763226
2023-02-12T11:13:36.875Z,9.763226
2023-02-12T11:14:36.835Z,9.763226
2023-02-12T11:15:36.832Z,9.763226
2023-02-12T11:16:36.842Z,9.763226
2023-02-12T11:17:36.799Z,9.763226
2023-02-12T11:18:36.778Z,9.763226
2023-02-12T11:19:36.788Z,9.763226
2023-02-12T11:20:36.777Z,9.763226
2023-02-12T11:21:36.803Z,9.763226
2023-02-12T11:22:36.769Z,9.763226
2023-02-12T11:23:36.774Z,9.763226
2023-02-12T11:24:36.763Z,9.763226
2023-02-12T11:25:36.737Z,9.763226
2023-02-12T11:26:36.755Z,9.763226
2023-02-12T11:27:36.730Z,9.763226
2023-02-12T11:28:36.853Z,9.763226
2023-02-12T11:29:36.687Z,9.763226
2023-02-12T11:30:36.689Z,9.763226
2023-02-12T11:31:36.777Z,9.763226
2023-02-12T11:32:36.673Z,9.763226
2023-02-12T11:33:36.673Z,9.763226
2023-02-12T11:34:36.599Z,9.763226
2023-02-12T11:35:36.654Z,9.763226
2023-02-12T11:36:36.613Z,9.763226
2023-02-12T11:37:36.601Z,9.763226
2023-02-12T11:38:36.566Z,9.763226
2023-02-12T11:39:36.579Z,9.763226
2023-02-12T11:40:36.544Z,9.763226
2023-02-12T11:41:36.529Z,9.763226
2023-02-12T11:42:36.504Z,9.763226
2023-02-12T11:43:36.498Z,9.763226
2023-02-12T11:44:36.483Z,9.763226
2023-02-12T11:45:36.484Z,9.763226
2023-02-12T11:46:36.582Z,9.763226
2023-02-12T11:47:36.440Z,9.763226
2023-02-12T11:48:36.439Z,9.763226
2023-02-12T11:49:36.432Z,9.763226
2023-02-12T11:50:36.430Z,9.763226
2023-02-12T11:51:37.125Z,9.763226
2023-02-12T11:52:36.455Z,9.763226
2023-02-12T11:53:36.407Z,9.763226
2023-02-12T11:54:36.401Z,9.763226
2023-02-12T11:55:36.412Z,9.763226
2023-02-12T11:56:36.413Z,9.763226
2023-02-12T11:57:36.394Z,9.763226
2023-02-12T11:58:36.353Z,9.763226
2023-02-12T11:59:36.414Z,9.763226
2023-02-12T12:00:36.332Z,9.763226
2023-02-12T12:01:36.381Z,9.763226
2023-02-12T12:02:36.385Z,9.763226
2023-02-12T12:03:36.370Z,9.763226
2023-02-12T12:04:36.356Z,9.763226
2023-02-12T12:05:36.345Z,9.763226
2023-02-12T12:06:36.348Z,9.763226
2023-02-12T12:07:36.309Z,9.763226
2023-02-12T12:08:36.295Z,9.763226
2023-02-12T12:09:36.269Z,9.763226
2023-02-12T12:10:36.254Z,9.763226
2023-02-12T12:11:36.285Z,9.763226
2023-02-12T12:12:36.246Z,9.763226
2023-02-12T12:13:36.217Z,9.763226
2023-02-12T12:14:36.259Z,9.763226
2023-02-12T12:15:36.224Z,9.763226
2023-02-12T12:16:36.282Z,9.763226
2023-02-12T12:17:36.210Z,9.763226
2023-02-12T12:18:36.188Z,9.763226
2023-02-12T12:19:36.226Z,9.763226
2023-02-12T12:20:36.197Z,9.763226
2023-02-12T12:21:36.166Z,9.763226
2023-02-12T12:22:36.154Z,9.763226
2023-02-12T12:23:36.136Z,9.763226
2023-02-12T12:24:36.126Z,9.763226
2023-02-12T12:25:36.159Z,9.763226
2023-02-12T12:26:36.096Z,9.763226
2023-02-12T12:27:36.119Z,9.763226
2023-02-12T12:28:36.142Z,9.763226
2023-02-12T12:29:36.076Z,9.763226
2023-02-12T12:30:36.094Z,9.763226
2023-02-12T12:31:36.125Z,9.763226
2023-02-12T12:32:36.079Z,9.763226
2023-02-12T12:33:36.017Z,9.763226
2023-02-12T12:34:36.029Z,9.763226
2023-02-12T12:35:36.025Z,9.763226
2023-02-12T12:36:36.005Z,9.763226
2023-02-12T12:37:35.989Z,9.763226
2023-02-12T12:38:35.978Z,9.763226
2023-02-12T12:39:35.944Z,9.763226
2023-02-12T12:40:35.951Z,9.763226
2023-02-12T12:41:35.967Z,9.763226
2023-02-12T12:42:35.942Z,9.763226
2023-02-12T12:43:35.961Z,9.763226
2023-02-12T12:44:35.974Z,9.763226
2023-02-12T12:45:35.921Z,9.763226
2023-02-12T12:46:35.893Z,9.763226
2023-02-12T12:47:35.903Z,9.763226
2023-02-12T12:48:35.895Z,9.763226
2023-02-12T12:49:35.869Z,9.763226
2023-02-12T12:50:35.862Z,9.763226
2023-02-12T12:51:35.835Z,9.763226
2023-02-12T12:52:35.855Z,9.763226
2023-02-12T12:53:35.829Z,9.763226